Time;durP1;ratioP1;P1;durP2;ratioP2;P2;SDS_P1;SDS_P2;PMS_P1;PMS_P2;Temp;Humidity;BMP_temperature;BMP_pressure;BME280_temperature;BME280_humidity;BME280_pressure;Samples;Min_cycle;Max_cycle;Signal;HPM_P1;HPM_P2
2023/01/30 05:25:39;;;;;;;20.75;4.25;;;12.50;64.30;;;;;;5553588;24;20064;-69
2023/01/30 05:28:05;;;;;;;18.45;4.10;;;12.60;63.00;;;;;;4773028;30;20056;-69
2023/01/30 05:30:31;;;;;;;22.65;4.72;;;12.60;62.30;;;;;;4789854;30;20050;-70
2023/01/30 05:32:57;;;;;;;28.80;4.88;;;12.50;62.20;;;;;;4789406;30;20047;-72
2023/01/30 05:35:23;;;;;;;26.38;4.75;;;12.50;62.30;;;;;;4789862;30;20047;-75
2023/01/30 05:37:50;;;;;;;25.88;5.45;;;12.50;62.60;;;;;;4790381;30;20483;-75
2023/01/30 05:40:16;;;;;;;22.08;4.72;;;12.50;63.20;;;;;;4789020;30;20445;-77
2023/01/30 05:42:41;;;;;;;18.00;3.85;;;12.60;63.70;;;;;;4792021;29;20031;-76
2023/01/30 05:45:08;;;;;;;24.38;4.78;;;12.70;63.80;;;;;;4808043;29;20079;-75
2023/01/30 05:47:33;;;;;;;17.33;4.35;;;12.90;64.20;;;;;;4793109;29;20134;-75
2023/01/30 05:49:59;;;;;;;21.92;4.88;;;13.10;64.60;;;;;;4774421;30;20154;-75
2023/01/30 05:52:25;;;;;;;18.63;3.50;;;13.40;65.10;;;;;;4789074;30;20062;-76
2023/01/30 05:54:50;;;;;;;23.60;4.65;;;13.50;64.90;;;;;;4790054;30;20047;-77
2023/01/30 05:57:19;;;;;;;18.90;3.33;;;13.60;65.10;;;;;;4772838;30;20062;-78
2023/01/30 05:59:45;;;;;;;19.60;4.00;;;13.80;65.40;;;;;;4773631;30;20061;-77
2023/01/30 06:02:11;;;;;;;16.75;3.15;;;13.90;65.40;;;;;;4789379;30;20491;-76
2023/01/30 06:04:36;;;;;;;16.95;3.60;;;13.90;65.30;;;;;;4789014;30;20499;-74
2023/01/30 06:07:02;;;;;;;18.95;3.97;;;14.00;65.40;;;;;;4789256;30;20095;-76
2023/01/30 06:09:28;;;;;;;19.45;3.75;;;13.90;64.10;;;;;;4789334;30;20054;-76
2023/01/30 06:11:54;;;;;;;19.83;4.32;;;14.00;65.20;;;;;;4789743;30;20065;-73
2023/01/30 06:14:20;;;;;;;18.52;3.10;;;14.10;65.60;;;;;;4789437;30;20054;-75
2023/01/30 06:16:46;;;;;;;15.38;3.17;;;14.10;65.90;;;;;;4790230;30;20071;-75
2023/01/30 06:19:11;;;;;;;25.75;4.57;;;14.20;65.90;;;;;;4789748;30;20059;-76
2023/01/30 06:21:37;;;;;;;16.58;3.47;;;14.30;66.10;;;;;;4789778;30;20066;-74
2023/01/30 06:24:03;;;;;;;17.85;4.10;;;14.50;66.20;;;;;;4789627;30;20420;-75
2023/01/30 06:26:28;;;;;;;22.92;4.05;;;14.50;65.90;;;;;;4797207;29;20059;-76
2023/01/30 06:28:54;;;;;;;15.52;3.58;;;14.60;66.10;;;;;;4791772;29;20061;-75
2023/01/30 06:31:20;;;;;;;20.05;3.47;;;14.70;66.40;;;;;;4810853;29;20054;-78
2023/01/30 06:33:47;;;;;;;38.40;5.05;;;14.80;66.10;;;;;;4795052;29;20046;-75
2023/01/30 06:36:13;;;;;;;14.73;4.22;;;14.90;66.20;;;;;;4811096;29;20067;-81
2023/01/30 06:38:39;;;;;;;15.70;3.42;;;14.90;65.80;;;;;;4811160;29;20523;-74
2023/01/30 06:41:05;;;;;;;17.10;3.10;;;15.00;65.60;;;;;;4810786;29;20058;-75
2023/01/30 06:43:31;;;;;;;15.85;2.78;;;15.00;65.70;;;;;;4811023;29;20096;-79
2023/01/30 06:45:58;;;;;;;21.75;3.35;;;15.10;66.00;;;;;;4810831;29;20092;-73
2023/01/30 06:48:24;;;;;;;21.45;3.90;;;15.10;66.10;;;;;;4795445;29;20050;-74
2023/01/30 06:50:49;;;;;;;24.80;3.78;;;15.20;65.80;;;;;;4811270;29;20050;-75
2023/01/30 06:53:15;;;;;;;23.30;3.20;;;15.20;66.00;;;;;;4779846;29;20061;-75
2023/01/30 06:55:41;;;;;;;26.70;4.70;;;15.30;65.90;;;;;;4810902;29;20054;-76
2023/01/30 06:58:12;;;;;;;26.27;3.90;;;15.30;66.00;;;;;;4810429;29;20444;-75
2023/01/30 07:00:40;;;;;;;24.15;4.20;;;15.30;66.00;;;;;;4810663;29;20061;-73
2023/01/30 07:03:13;;;;;;;24.80;4.10;;;15.30;65.00;;;;;;4810682;29;20062;-74
2023/01/30 07:05:39;;;;;;;28.80;4.00;;;15.30;64.40;;;;;;4794910;29;20059;-75
2023/01/30 07:08:05;;;;;;;30.42;5.40;;;15.30;63.30;;;;;;4810254;29;20058;-73
2023/01/30 07:10:32;;;;;;;32.05;5.00;;;15.20;62.30;;;;;;4810666;29;20050;-72
2023/01/30 07:12:58;;;;;;;21.48;3.83;;;15.20;61.00;;;;;;4810548;29;20051;-73
2023/01/30 07:15:24;;;;;;;31.67;5.20;;;15.20;60.30;;;;;;4798873;29;20073;-74
2023/01/30 07:17:49;;;;;;;19.45;4.68;;;15.20;60.30;;;;;;4798403;29;20455;-73
2023/01/30 07:20:15;;;;;;;17.35;4.30;;;15.20;59.80;;;;;;4795578;29;20057;-73
2023/01/30 07:22:41;;;;;;;19.60;3.65;;;15.20;59.60;;;;;;4810617;29;20151;-72
2023/01/30 07:25:07;;;;;;;17.23;3.80;;;15.30;59.30;;;;;;4810664;29;20047;-74
2023/01/30 07:27:33;;;;;;;20.98;4.30;;;15.30;59.40;;;;;;4810529;29;20062;-73
2023/01/30 07:29:59;;;;;;;13.57;4.05;;;15.30;59.10;;;;;;4810330;29;20135;-72
2023/01/30 07:32:25;;;;;;;17.08;4.53;;;15.30;58.60;;;;;;4810350;29;20039;-75
2023/01/30 07:34:50;;;;;;;21.02;4.45;;;15.30;58.40;;;;;;4793657;29;20086;-72
2023/01/30 07:37:16;;;;;;;13.38;3.40;;;15.40;58.50;;;;;;4794244;29;20094;-71
2023/01/30 07:39:42;;;;;;;12.38;3.53;;;15.40;58.80;;;;;;4809508;29;20497;-71
2023/01/30 07:42:08;;;;;;;14.35;3.45;;;15.50;59.00;;;;;;4808494;29;20128;-72
2023/01/30 07:44:33;;;;;;;17.63;3.83;;;15.60;59.20;;;;;;4810068;29;20058;-73
2023/01/30 07:46:59;;;;;;;21.45;3.92;;;15.60;59.40;;;;;;4808843;29;20051;-71
2023/01/30 07:49:25;;;;;;;13.73;3.15;;;15.60;59.50;;;;;;4810319;29;20051;-76
2023/01/30 07:51:51;;;;;;;14.85;3.90;;;15.60;59.70;;;;;;4809610;29;20065;-71
2023/01/30 07:54:17;;;;;;;13.32;3.75;;;15.60;60.00;;;;;;4810398;29;20139;-72
2023/01/30 07:56:43;;;;;;;12.07;3.47;;;15.60;60.20;;;;;;4793601;29;20471;-73
2023/01/30 07:59:10;;;;;;;16.60;3.53;;;15.60;60.40;;;;;;4809677;29;20047;-74
2023/01/30 08:01:36;;;;;;;15.52;3.72;;;15.60;60.40;;;;;;4809763;29;20058;-72
2023/01/30 08:04:02;;;;;;;15.02;3.67;;;15.60;60.60;;;;;;4808900;29;20047;-72
2023/01/30 08:06:28;;;;;;;15.13;3.72;;;15.60;60.70;;;;;;4797806;29;20054;-71
2023/01/30 08:08:54;;;;;;;10.73;3.63;;;15.60;60.80;;;;;;4794601;29;20059;-71
2023/01/30 08:11:20;;;;;;;12.90;3.33;;;15.50;61.00;;;;;;4809762;29;20443;-72
2023/01/30 08:13:46;;;;;;;14.38;3.42;;;15.50;61.00;;;;;;4810097;29;20133;-70
2023/01/30 08:16:12;;;;;;;12.25;3.03;;;15.50;61.00;;;;;;4793816;29;20057;-72
2023/01/30 08:18:37;;;;;;;19.25;3.13;;;15.50;61.00;;;;;;4809913;29;20055;-71
2023/01/30 08:21:05;;;;;;;13.85;3.78;;;15.50;61.10;;;;;;4810068;29;20106;-71
2023/01/30 08:23:32;;;;;;;16.70;3.50;;;15.50;61.20;;;;;;4808461;29;20046;-72
2023/01/30 08:26:02;;;;;;;13.02;2.90;;;15.40;61.80;;;;;;4809198;29;20070;-72
2023/01/30 08:28:29;;;;;;;14.45;3.05;;;15.40;62.10;;;;;;4809722;29;20059;-74
2023/01/30 08:30:55;;;;;;;11.93;3.88;;;15.40;61.70;;;;;;4809762;29;20055;-73
2023/01/30 08:33:22;;;;;;;16.88;3.28;;;15.30;61.10;;;;;;4809368;29;20065;-73
2023/01/30 08:35:48;;;;;;;17.65;3.33;;;15.30;60.50;;;;;;4808447;29;20432;-73
2023/01/30 08:38:14;;;;;;;21.65;5.20;;;15.30;59.90;;;;;;4807953;29;20042;-73
2023/01/30 08:40:40;;;;;;;16.58;4.30;;;15.30;59.50;;;;;;4809131;29;20042;-74
2023/01/30 08:43:06;;;;;;;9.93;3.53;;;15.20;59.30;;;;;;4808817;29;20078;-73
2023/01/30 08:45:32;;;;;;;18.70;3.97;;;15.20;58.70;;;;;;4762437;29;20062;-72
2023/01/30 08:47:59;;;;;;;19.70;4.60;;;15.20;59.10;;;;;;4809252;29;20058;-71
2023/01/30 08:50:25;;;;;;;15.50;4.07;;;15.10;59.70;;;;;;4809447;29;20533;-71
2023/01/30 08:52:51;;;;;;;13.10;3.85;;;15.10;60.00;;;;;;4807770;29;20134;-73
2023/01/30 08:55:17;;;;;;;13.15;3.78;;;15.10;59.50;;;;;;4808205;29;20055;-73
2023/01/30 08:57:43;;;;;;;17.90;4.07;;;15.00;59.10;;;;;;4809074;29;20050;-73
2023/01/30 09:00:09;;;;;;;13.40;4.20;;;15.00;58.80;;;;;;4809043;29;20447;-73
2023/01/30 09:02:36;;;;;;;11.23;3.47;;;14.90;58.90;;;;;;4808557;29;20455;-72
2023/01/30 09:05:02;;;;;;;17.25;4.15;;;14.90;59.10;;;;;;4808307;29;20058;-71
2023/01/30 09:07:28;;;;;;;12.52;3.60;;;14.90;59.50;;;;;;4808077;29;20055;-73
2023/01/30 09:09:54;;;;;;;12.18;3.97;;;14.90;60.30;;;;;;4808726;29;20137;-71
2023/01/30 09:12:20;;;;;;;15.85;3.75;;;14.90;60.60;;;;;;4798300;29;20079;-74
2023/01/30 09:14:46;;;;;;;10.38;3.45;;;14.90;60.80;;;;;;4808432;29;20054;-73
2023/01/30 09:17:12;;;;;;;13.73;3.80;;;14.90;60.70;;;;;;4816098;29;20098;-75
2023/01/30 09:19:38;;;;;;;14.45;3.70;;;14.90;60.40;;;;;;4827185;29;20391;-74
2023/01/30 09:22:04;;;;;;;14.30;4.15;;;14.90;60.20;;;;;;4812625;29;20065;-72
2023/01/30 09:24:30;;;;;;;14.35;3.85;;;14.90;60.20;;;;;;4792682;29;20069;-75
2023/01/30 09:26:57;;;;;;;13.13;3.80;;;14.80;60.20;;;;;;4792405;29;20391;-76
2023/01/30 09:29:24;;;;;;;12.45;3.72;;;14.80;60.50;;;;;;4814837;29;20133;-74
2023/01/30 09:31:50;;;;;;;12.35;3.28;;;14.80;60.60;;;;;;4806915;29;20062;-74
2023/01/30 09:34:16;;;;;;;16.83;3.60;;;14.80;61.00;;;;;;4806660;29;20057;-73
2023/01/30 09:36:41;;;;;;;11.93;3.22;;;14.80;61.30;;;;;;4807976;29;20051;-74
2023/01/30 09:39:07;;;;;;;11.85;2.95;;;14.80;61.50;;;;;;4802770;29;20047;-77
2023/01/30 09:42:06;;;;;;;13.00;3.28;;;14.80;61.50;;;;;;4815376;29;20062;-73
2023/01/30 09:44:57;;;;;;;11.95;3.28;;;14.80;61.10;;;;;;4807781;29;20429;-73
2023/01/30 09:47:41;;;;;;;12.35;3.15;;;14.80;61.30;;;;;;4813103;29;20061;-76
2023/01/30 09:50:42;;;;;;;13.63;4.25;;;14.90;61.10;;;;;;4808210;29;20352;-74
2023/01/30 09:53:42;;;;;;;11.27;3.30;;;14.90;61.10;;;;;;4807636;29;20047;-75
2023/01/30 09:56:07;;;;;;;10.88;3.08;;;14.80;60.90;;;;;;4800495;29;20484;-75
2023/01/30 09:58:48;;;;;;;11.82;3.67;;;14.80;60.90;;;;;;4805792;29;20134;-74
2023/01/30 10:01:47;;;;;;;11.88;3.88;;;14.70;60.70;;;;;;4807357;29;20090;-72
2023/01/30 10:04:36;;;;;;;15.77;4.68;;;14.70;60.80;;;;;;4816898;29;20058;-73
2023/01/30 10:07:25;;;;;;;15.32;4.13;;;14.70;61.10;;;;;;4807900;29;20115;-72
2023/01/30 10:10:35;;;;;;;17.98;4.35;;;14.70;60.20;;;;;;4773324;29;20535;-72
2023/01/30 10:13:09;;;;;;;20.42;5.30;;;14.60;59.40;;;;;;4786179;29;20059;-72
2023/01/30 10:15:52;;;;;;;16.42;4.07;;;14.60;59.00;;;;;;4807926;29;20513;-73
2023/01/30 10:18:49;;;;;;;16.48;4.30;;;14.60;59.10;;;;;;4808415;29;20172;-75
2023/01/30 10:21:30;;;;;;;11.98;3.35;;;14.50;59.00;;;;;;4808016;29;20471;-73
2023/01/30 10:24:17;;;;;;;11.25;2.72;;;14.60;59.30;;;;;;4807977;29;20097;-75
2023/01/30 10:26:43;;;;;;;14.65;3.42;;;14.70;59.40;;;;;;4782066;30;20059;-73
2023/01/30 10:29:12;;;;;;;19.25;3.58;;;14.70;59.60;;;;;;4791965;29;20126;-74
2023/01/30 10:31:54;;;;;;;16.48;4.25;;;14.80;59.80;;;;;;4789663;30;20341;-73
2023/01/30 10:34:39;;;;;;;14.35;3.60;;;14.90;60.00;;;;;;4774039;30;20047;-74
2023/01/30 10:37:17;;;;;;;12.15;3.40;;;14.90;59.80;;;;;;4789537;30;20498;-74
2023/01/30 10:40:19;;;;;;;11.02;3.03;;;14.90;59.80;;;;;;4789559;30;20116;-76
2023/01/30 10:43:15;;;;;;;10.43;2.80;;;15.00;60.00;;;;;;4790756;29;20058;-72
2023/01/30 10:45:54;;;;;;;13.50;2.80;;;15.00;60.10;;;;;;4801545;29;20059;-78
2023/01/30 10:48:44;;;;;;;14.02;3.47;;;15.00;60.90;;;;;;4808086;29;20359;-75
2023/01/30 10:51:26;;;;;;;11.02;2.70;;;15.10;60.50;;;;;;4807665;29;20054;-73
2023/01/30 10:54:28;;;;;;;12.80;3.25;;;15.10;60.80;;;;;;4789076;29;20043;-76
2023/01/30 10:57:38;;;;;;;11.95;3.40;;;15.10;60.90;;;;;;4760342;30;20060;-73
2023/01/30 11:00:16;;;;;;;15.68;2.70;;;15.20;61.20;;;;;;4760202;30;20477;-74
2023/01/30 11:03:27;;;;;;;10.80;3.13;;;15.30;61.20;;;;;;4788904;30;20463;-72
2023/01/30 11:06:00;;;;;;;15.63;3.50;;;15.40;61.20;;;;;;4788490;29;20074;-75
2023/01/30 11:08:30;;;;;;;18.38;2.55;;;15.60;60.80;;;;;;4807442;29;20459;-75
2023/01/30 11:10:57;;;;;;;11.73;2.75;;;15.60;60.50;;;;;;4800703;29;20483;-78
2023/01/30 11:13:32;;;;;;;11.30;2.50;;;15.60;60.40;;;;;;4789156;30;20058;-77
2023/01/30 11:16:08;;;;;;;9.48;2.80;;;15.70;60.30;;;;;;4789075;29;20391;-75
2023/01/30 11:18:51;;;;;;;9.60;2.22;;;15.70;60.10;;;;;;4776855;30;20055;-77
2023/01/30 11:21:25;;;;;;;12.98;2.78;;;15.60;60.10;;;;;;4792309;30;20047;-77
2023/01/30 11:23:52;;;;;;;;;;;15.60;60.30;;;;;;4792768;30;20479;-74
2023/01/30 11:26:38;;;;;;;9.98;2.90;;;15.60;61.50;;;;;;4805022;29;20009;-75
2023/01/30 11:29:25;;;;;;;12.80;2.53;;;15.60;62.00;;;;;;4809158;29;20059;-75
2023/01/30 11:31:52;;;;;;;10.15;2.35;;;15.60;62.80;;;;;;4810326;29;20062;-76
2023/01/30 11:34:21;;;;;;;9.80;2.88;;;15.60;62.60;;;;;;4809940;29;20082;-73
2023/01/30 11:36:47;;;;;;;11.85;2.38;;;15.70;62.90;;;;;;4810334;29;20069;-78
2023/01/30 11:39:19;;;;;;;9.27;2.65;;;15.70;63.20;;;;;;4809946;29;20047;-74
2023/01/30 11:41:57;;;;;;;10.85;2.47;;;15.80;63.40;;;;;;4810047;29;20065;-73
2023/01/30 11:44:39;;;;;;;8.07;2.10;;;15.80;63.90;;;;;;4810712;29;20051;-73
2023/01/30 11:47:17;;;;;;;9.55;3.08;;;15.80;64.40;;;;;;4779048;29;20051;-75
2023/01/30 11:49:47;;;;;;;13.93;3.25;;;15.80;64.50;;;;;;4810156;29;20050;-79
2023/01/30 11:52:17;;;;;;;14.18;2.80;;;15.90;64.20;;;;;;4809014;29;20043;-74
2023/01/30 11:54:44;;;;;;;11.93;3.60;;;15.90;64.50;;;;;;4810011;29;20478;-74
2023/01/30 11:57:13;;;;;;;13.68;3.33;;;15.90;64.80;;;;;;4809583;29;20386;-73
2023/01/30 11:59:44;;;;;;;10.90;2.17;;;15.90;65.20;;;;;;4810172;29;20062;-75
2023/01/30 12:02:28;;;;;;;7.75;2.10;;;15.90;65.50;;;;;;4810141;29;20046;-77
2023/01/30 12:04:59;;;;;;;8.70;2.55;;;15.90;66.10;;;;;;4820595;29;20050;-74
2023/01/30 12:07:27;;;;;;;9.23;2.58;;;15.90;66.20;;;;;;4792038;30;20150;-74
2023/01/30 12:09:54;;;;;;;9.75;2.75;;;15.90;66.30;;;;;;4791886;30;20147;-76
2023/01/30 12:12:41;;;;;;;7.75;2.50;;;15.90;66.50;;;;;;4791126;30;20051;-77
2023/01/30 12:15:26;;;;;;;9.70;2.33;;;15.70;61.80;;;;;;4793116;29;20138;-72
2023/01/30 12:18:09;;;;;;;11.10;2.40;;;15.70;66.10;;;;;;4809584;29;20050;-73
2023/01/30 12:21:03;;;;;;;9.88;2.63;;;15.70;65.40;;;;;;4792084;30;20091;-74
2023/01/30 12:25:12;;;;;;;11.95;2.88;;;15.60;61.30;;;;;;5058777;27;2083432;-72
2023/01/30 12:28:00;;;;;;;10.27;2.33;;;15.60;61.80;;;;;;5112691;28;20051;-76
2023/01/30 12:30:33;;;;;;;12.18;3.13;;;15.60;61.70;;;;;;5105806;28;20176;-77
2023/01/30 12:33:02;;;;;;;12.40;2.92;;;15.50;61.00;;;;;;5113044;28;20051;-71
2023/01/30 12:35:41;;;;;;;11.90;2.72;;;15.50;61.00;;;;;;5077963;28;20055;-71
2023/01/30 12:38:28;;;;;;;12.18;2.90;;;15.40;60.10;;;;;;5094255;28;20076;-73
2023/01/30 12:41:30;;;;;;;12.57;2.78;;;15.40;60.10;;;;;;5112027;28;20061;-75
2023/01/30 12:44:21;;;;;;;13.35;2.67;;;15.30;60.00;;;;;;5072599;28;20056;-76
2023/01/30 12:47:23;;;;;;;18.13;3.33;;;15.30;60.90;;;;;;5112446;28;20044;-76
2023/01/30 12:50:24;;;;;;;13.68;2.83;;;15.20;61.00;;;;;;5112821;28;20094;-74
2023/01/30 12:53:10;;;;;;;10.73;2.53;;;15.20;60.80;;;;;;5111888;28;20134;-79
2023/01/30 12:56:01;;;;;;;13.23;3.60;;;15.20;61.00;;;;;;5094391;28;20043;-74
2023/01/30 12:58:50;;;;;;;9.27;1.95;;;15.10;60.90;;;;;;5112099;28;20051;-74
2023/01/30 13:01:43;;;;;;;11.20;2.90;;;15.10;61.00;;;;;;5112409;28;20048;-76
2023/01/30 13:04:20;;;;;;;9.13;2.40;;;15.10;61.10;;;;;;5094330;28;20442;-74
2023/01/30 13:06:49;;;;;;;8.32;2.80;;;15.00;61.40;;;;;;5094121;28;20051;-77
2023/01/30 13:09:50;;;;;;;11.73;2.67;;;15.00;61.40;;;;;;5111933;28;20366;-76
2023/01/30 13:12:25;;;;;;;9.50;2.35;;;15.00;61.60;;;;;;5041238;28;20081;-75
2023/01/30 13:15:18;;;;;;;12.35;2.58;;;15.00;61.80;;;;;;5085754;28;20059;-72
2023/01/30 13:18:13;;;;;;;9.50;2.23;;;15.00;62.00;;;;;;5082783;28;20093;-78
2023/01/30 13:20:50;;;;;;;12.55;2.60;;;14.90;62.40;;;;;;5096745;28;20344;-77
2023/01/30 13:23:21;;;;;;;11.32;2.20;;;14.90;62.70;;;;;;5102880;28;20132;-76
2023/01/30 13:26:01;;;;;;;10.93;2.92;;;14.90;63.10;;;;;;5077500;28;20040;-77
2023/01/30 13:28:37;;;;;;;12.48;2.88;;;14.90;63.30;;;;;;5053539;28;20115;-75
2023/01/30 13:31:07;;;;;;;17.20;3.50;;;14.90;63.50;;;;;;5054545;28;20083;-78
2023/01/30 13:33:36;;;;;;;19.75;3.97;;;14.90;63.60;;;;;;5037707;28;20350;-76
2023/01/30 13:36:14;;;;;;;16.17;3.47;;;14.90;63.20;;;;;;5065867;28;20052;-77
2023/01/30 13:38:53;;;;;;;16.17;3.08;;;14.90;63.30;;;;;;5060225;28;20048;-77
2023/01/30 13:41:19;;;;;;;13.73;2.92;;;15.00;63.50;;;;;;5042927;28;20056;-77
2023/01/30 13:43:54;;;;;;;10.77;3.03;;;15.20;63.60;;;;;;5077302;28;20063;-75
2023/01/30 13:46:28;;;;;;;16.92;3.40;;;15.20;61.20;;;;;;5061484;28;20110;-79
2023/01/30 13:49:16;;;;;;;19.23;3.65;;;15.10;63.60;;;;;;5057267;28;20443;-77
2023/01/30 13:52:01;;;;;;;9.77;3.00;;;15.20;64.20;;;;;;5052926;28;20397;-78
2023/01/30 13:54:43;;;;;;;23.70;4.35;;;15.30;63.90;;;;;;5077481;28;20049;-76
2023/01/30 13:57:33;;;;;;;17.33;3.55;;;15.40;64.60;;;;;;5060123;28;20053;-78
2023/01/30 14:00:16;;;;;;;20.77;3.95;;;15.40;63.80;;;;;;5077142;28;20040;-75
2023/01/30 14:03:02;;;;;;;17.25;3.30;;;15.50;63.80;;;;;;5077477;28;20040;-74
2023/01/30 14:05:50;;;;;;;18.48;3.28;;;15.60;63.90;;;;;;5059804;28;20048;-75
2023/01/30 14:08:28;;;;;;;24.10;5.10;;;15.60;64.20;;;;;;5078018;28;20056;-75
2023/01/30 14:10:56;;;;;;;24.25;4.32;;;15.60;64.20;;;;;;5076207;28;20047;-74
2023/01/30 14:13:23;;;;;;;22.55;4.25;;;15.60;64.20;;;;;;5077498;28;20051;-74
2023/01/30 14:16:04;;;;;;;19.33;3.72;;;15.70;64.20;;;;;;5076926;28;20056;-75
2023/01/30 14:18:32;;;;;;;26.42;4.05;;;15.70;64.30;;;;;;5072753;28;20036;-74
2023/01/30 14:21:19;;;;;;;23.48;4.03;;;15.70;64.10;;;;;;5071299;28;20040;-76
2023/01/30 14:23:59;;;;;;;25.55;4.00;;;15.80;64.20;;;;;;5058749;28;20093;-74
2023/01/30 14:26:47;;;;;;;17.42;2.95;;;15.90;63.90;;;;;;5096434;28;20485;-75
2023/01/30 14:29:38;;;;;;;16.90;2.83;;;15.30;61.90;;;;;;5095712;28;20123;-74
2023/01/30 14:32:15;;;;;;;24.05;5.00;;;14.70;64.40;;;;;;5076184;28;20048;-74
2023/01/30 14:35:02;;;;;;;16.40;3.08;;;14.50;65.80;;;;;;5077038;28;20052;-74
2023/01/30 14:37:45;;;;;;;17.52;3.35;;;14.30;66.70;;;;;;5076737;28;20139;-75
2023/01/30 14:40:20;;;;;;;20.05;3.58;;;14.20;67.50;;;;;;5080287;28;20451;-76
2023/01/30 14:43:11;;;;;;;20.02;3.42;;;14.40;68.40;;;;;;5096699;28;20056;-77
2023/01/30 14:45:48;;;;;;;16.42;3.28;;;14.90;67.70;;;;;;5096721;28;20040;-74
2023/01/30 14:48:44;;;;;;;13.95;3.33;;;15.20;66.60;;;;;;5077820;28;20040;-74
2023/01/30 14:51:21;;;;;;;15.43;3.67;;;15.40;66.00;;;;;;5095813;28;20055;-75
2023/01/30 14:54:00;;;;;;;18.42;3.65;;;15.60;65.40;;;;;;5095739;28;20036;-76
2023/01/30 14:56:59;;;;;;;19.52;3.90;;;15.70;65.20;;;;;;5096480;28;20058;-75
2023/01/30 14:59:47;;;;;;;16.90;2.58;;;15.80;64.90;;;;;;5089364;28;20565;-76
2023/01/30 18:33:16;;;;;;;16.45;4.70;;;14.10;65.40;;;;;;5661399;24;20051;-73
2023/01/30 18:35:42;;;;;;;15.45;3.75;;;14.20;65.20;;;;;;4827576;29;20051;-76
2023/01/30 18:38:08;;;;;;;17.55;4.57;;;14.30;65.20;;;;;;4827689;29;20435;-74
2023/01/30 18:40:37;;;;;;;23.65;4.20;;;14.30;65.20;;;;;;4812358;29;20487;-73
2023/01/30 18:43:03;;;;;;;17.88;3.78;;;14.30;65.20;;;;;;4836572;29;20058;-74
2023/01/30 18:45:30;;;;;;;16.83;3.83;;;14.40;65.40;;;;;;4827803;29;20053;-74
2023/01/30 18:47:55;;;;;;;15.02;4.18;;;14.40;65.50;;;;;;4811501;29;20102;-76
2023/01/30 18:50:24;;;;;;;19.65;4.28;;;14.40;66.70;;;;;;4812116;29;20042;-74
2023/01/30 18:52:50;;;;;;;16.10;4.28;;;14.40;66.70;;;;;;4811141;29;20478;-76
2023/01/30 18:55:16;;;;;;;18.45;4.20;;;14.50;67.60;;;;;;4826841;29;20058;-78
2023/01/30 18:57:41;;;;;;;22.13;4.35;;;14.50;67.30;;;;;;4826882;29;20073;-72
2023/01/30 19:00:08;;;;;;;18.55;4.28;;;14.50;68.30;;;;;;4826968;29;20058;-74
2023/01/30 19:02:34;;;;;;;17.90;4.45;;;14.60;68.20;;;;;;4826750;29;20058;-76
2023/01/30 19:05:00;;;;;;;14.68;4.55;;;14.60;67.90;;;;;;4812592;29;20069;-75
2023/01/30 19:07:25;;;;;;;18.13;4.35;;;14.60;68.40;;;;;;4811321;29;20130;-73
2023/01/30 19:09:51;;;;;;;17.30;3.70;;;14.60;68.60;;;;;;4826448;29;20042;-74
2023/01/30 19:15:02;;;;;;;12.50;2.85;;;14.50;67.90;;;;;;4826138;29;20058;-73
2023/01/30 19:17:28;;;;;;;17.98;2.97;;;14.50;67.90;;;;;;4826594;29;20050;-72
2023/01/30 19:19:56;;;;;;;14.30;4.60;;;14.50;67.90;;;;;;4811202;29;20070;-71
2023/01/30 19:22:22;;;;;;;15.90;3.70;;;14.50;68.10;;;;;;4826925;29;20046;-72
2023/01/30 19:24:47;;;;;;;15.98;3.92;;;14.50;68.10;;;;;;4826598;29;20115;-75
2023/01/30 19:27:13;;;;;;;12.88;3.78;;;14.50;68.10;;;;;;4833667;29;20081;-73
2023/01/30 19:29:40;;;;;;;9.57;3.45;;;14.60;68.00;;;;;;4829062;29;20077;-73
2023/01/30 19:32:06;;;;;;;18.42;4.78;;;14.60;67.90;;;;;;4836877;29;20046;-75
2023/01/30 19:34:32;;;;;;;16.50;3.70;;;14.60;67.80;;;;;;4836735;29;20377;-72
2023/01/30 19:37:00;;;;;;;16.63;3.53;;;14.50;67.70;;;;;;4844910;29;20129;-72
2023/01/30 19:39:26;;;;;;;18.30;3.45;;;14.50;67.70;;;;;;4828108;29;20054;-72
2023/01/30 19:41:52;;;;;;;16.80;3.83;;;14.50;67.70;;;;;;4807684;29;20089;-73
2023/01/30 19:44:18;;;;;;;11.63;3.97;;;14.50;67.60;;;;;;4826735;29;20475;-75
2023/01/30 19:46:45;;;;;;;16.30;3.33;;;14.50;67.60;;;;;;4826351;29;20054;-73
2023/01/30 19:49:11;;;;;;;13.38;3.13;;;14.50;67.60;;;;;;4825848;29;20055;-75
2023/01/30 19:51:37;;;;;;;15.00;3.25;;;14.50;67.60;;;;;;4810722;29;20079;-78
2023/01/30 19:54:05;;;;;;;13.82;3.53;;;14.50;67.50;;;;;;4826844;29;20042;-73
2023/01/30 19:56:32;;;;;;;17.20;4.18;;;14.50;67.60;;;;;;4826712;29;20062;-73
2023/01/30 19:59:00;;;;;;;14.65;3.85;;;14.50;67.50;;;;;;4826266;29;20050;-73
2023/01/30 20:01:29;;;;;;;13.77;2.90;;;14.40;67.50;;;;;;4825482;29;20166;-73
2023/01/30 20:03:55;;;;;;;13.82;3.10;;;14.40;67.40;;;;;;4826439;29;20046;-74
2023/01/30 20:06:28;;;;;;;12.52;2.65;;;14.40;67.40;;;;;;4826140;29;20454;-74
2023/01/30 20:08:58;;;;;;;10.68;2.83;;;14.40;67.40;;;;;;4826270;29;20110;-76
2023/01/30 20:11:24;;;;;;;16.88;3.05;;;14.40;67.30;;;;;;4825728;29;20062;-74
2023/01/30 20:13:52;;;;;;;15.20;3.25;;;14.40;67.30;;;;;;4825903;29;20480;-77
2023/01/30 20:16:24;;;;;;;14.50;3.42;;;14.40;67.30;;;;;;4826338;29;20427;-73
2023/01/30 20:18:57;;;;;;;12.77;3.47;;;14.40;67.30;;;;;;4826179;29;20050;-75
2023/01/30 20:21:23;;;;;;;11.88;3.17;;;14.40;67.30;;;;;;4825582;29;20090;-76
2023/01/30 20:23:50;;;;;;;15.32;3.83;;;14.40;67.20;;;;;;4824553;29;20050;-75
2023/01/30 20:26:18;;;;;;;14.45;3.33;;;14.40;67.10;;;;;;4826042;29;20074;-75
2023/01/30 20:28:44;;;;;;;11.90;2.80;;;14.40;67.10;;;;;;4825495;29;20054;-76
2023/01/30 20:31:14;;;;;;;10.02;2.33;;;14.40;67.00;;;;;;4810535;29;20412;-74
2023/01/30 20:33:40;;;;;;;15.23;4.05;;;14.40;67.00;;;;;;4829962;29;20353;-74
2023/01/30 20:36:08;;;;;;;11.13;3.05;;;14.50;67.00;;;;;;4844218;29;20050;-74
2023/01/30 20:38:37;;;;;;;8.02;2.55;;;14.40;66.90;;;;;;4843748;29;20046;-73
2023/01/30 20:41:04;;;;;;;10.50;2.83;;;14.40;66.80;;;;;;4844517;29;20093;-75
2023/01/30 20:43:32;;;;;;;11.35;2.88;;;14.40;66.80;;;;;;4828369;29;20065;-75
2023/01/30 20:46:06;;;;;;;11.70;3.15;;;14.40;66.80;;;;;;4829838;29;20065;-77
2023/01/30 20:48:33;;;;;;;12.57;3.00;;;14.50;66.80;;;;;;4848569;29;20121;-74
2023/01/30 20:51:13;;;;;;;9.57;2.78;;;14.40;66.70;;;;;;4847474;29;20469;-75
2023/01/30 20:53:44;;;;;;;8.25;2.35;;;14.40;66.70;;;;;;4832155;29;20072;-75
2023/01/30 20:56:10;;;;;;;10.45;2.35;;;14.40;66.70;;;;;;4847840;29;20046;-74
2023/01/30 20:58:36;;;;;;;12.15;2.50;;;14.40;66.70;;;;;;4831408;29;20101;-75
2023/01/30 21:01:15;;;;;;;9.40;2.90;;;14.40;66.70;;;;;;4847833;29;20365;-74
2023/01/30 21:03:49;;;;;;;12.70;2.42;;;14.40;66.70;;;;;;4831822;29;20144;-77
2023/01/30 21:06:16;;;;;;;6.88;2.15;;;14.40;66.70;;;;;;4847332;29;20100;-74
2023/01/30 21:08:42;;;;;;;8.35;2.30;;;14.40;66.70;;;;;;4847304;29;20082;-76
2023/01/30 21:11:12;;;;;;;9.38;2.35;;;14.40;66.80;;;;;;4847600;29;20081;-74
2023/01/30 21:13:39;;;;;;;10.07;3.00;;;14.40;66.80;;;;;;4831109;29;20050;-73
2023/01/30 21:16:14;;;;;;;7.75;2.15;;;14.40;66.70;;;;;;4841710;29;20054;-75
2023/01/30 21:18:42;;;;;;;7.43;2.22;;;14.40;66.70;;;;;;4828438;29;20096;-74
2023/01/30 21:21:15;;;;;;;10.45;2.83;;;14.30;66.70;;;;;;4841880;29;20050;-75
2023/01/30 21:23:42;;;;;;;8.57;2.10;;;14.30;66.70;;;;;;4846991;29;20401;-77
2023/01/30 21:26:09;;;;;;;8.38;2.33;;;14.30;66.70;;;;;;4835748;29;20377;-76
2023/01/30 21:28:36;;;;;;;8.43;2.75;;;14.30;66.70;;;;;;4813666;29;20131;-74
2023/01/30 21:31:09;;;;;;;9.13;2.97;;;14.30;66.70;;;;;;4840514;29;20121;-74
2023/01/30 21:33:35;;;;;;;9.77;3.45;;;14.30;66.70;;;;;;4848512;29;20105;-74
